Station: Mccluer Island

  Atmospheric Gas Attenuation - ITU Rec 676-11   --------------- db/100km ---------------
Date Time Temp RH % AH g/m3 Dew Point Wind Direction Speed kph Gust kph Barometer mB Rainfall Since 9am 24GHz 47GHz 76GHz 122GHz 134GHz 241GHz
07 07:20 24.5 87 19.47 22.2 17 17 1011.9 0 42.0 41.1 79.9 211.3 233.4 810.8
07 07:10 24.6 88 19.81 22.5 15 17 1011.9 0 42.7 41.7 81.4 215.4 238.5 828.3
07 07:00 24.5 88 19.69 22.4 17 19 1011.7 0 42.5 41.5 80.9 214.1 236.9 822.7
07 06:50 24.5 88 19.69 22.4 15 17 1011.6 0 42.5 41.5 80.9 214.1 236.9 822.7
07 06:40 24.5 88 19.69 22.4 15 19 1011.5 0 42.5 41.5 80.9 214.1 236.8 822.6
07 06:30 24.6 88 19.81 22.5 15 19 1011.3 0 42.7 41.7 81.4 215.3 238.4 828.0
07 06:20 24.6 87 19.58 22.3 15 17 1011.2 0 42.3 41.3 80.2 212.3 234.7 815.3
07 06:10 24.6 87 19.58 22.3 15 17 1011.2 0 42.3 41.3 80.2 212.3 234.7 815.3
07 06:00 24.8 87 19.8 22.5 15 17 1011 0 42.7 41.6 81.1 214.6 237.5 825.1
07 05:50 24.6 85 19.13 21.9 15 17 1010.9 0 41.3 40.4 78.1 206.6 227.6 790.6
07 05:40 24.7 85 19.24 22 13 15 1010.8 0 41.5 40.5 78.5 207.7 229.0 795.5
07 05:30 24.7 84 19.01 21.8 13 15 1010.7 0 41.0 40.1 77.4 204.7 225.4 783.0
07 05:20 24.8 84 19.12 21.9 13 13 1010.7 0 41.3 40.3 77.8 205.8 226.8 787.9
07 05:10 24.7 83 18.79 21.6 13 15 1010.7 0 40.6 39.7 76.3 202.0 222.0 771.2
07 04:50 24.8 83 18.89 21.7 15 17 1010.5 0 40.8 39.8 76.7 202.9 223.3 775.4
07 04:40 24.9 83 19 21.8 13 13 1010.5 0 41.0 40.0 77.1 204.0 224.7 780.3
07 04:30 24.8 81 18.44 21.3 13 17 1010.5 0 39.8 39.0 74.6 197.3 216.4 751.4
07 04:20 24.7 82 18.56 21.4 13 15 1010.5 0 40.1 39.2 75.2 199.1 218.5 758.8
07 04:10 24.9 82 18.77 21.6 17 17 1010.5 0 40.5 39.5 76.0 201.1 221.1 768.0
07 04:00 24.9 82 18.77 21.6 15 19 1010.4 0 40.5 39.5 76.0 201.1 221.1 767.9
07 03:50 24.8 82 18.66 21.5 17 17 1010.3 0 40.3 39.4 75.6 200.0 219.7 763.0
07 03:40 24.8 82 18.66 21.5 19 20 1010.2 0 40.3 39.4 75.6 200.0 219.7 763.0
07 03:30 24.7 82 18.56 21.4 19 20 1010.2 0 40.1 39.2 75.2 199.0 218.4 758.6
07 03:20 24.9 83 19 21.8 17 19 1010.3 0 41.0 40.0 77.1 204.0 224.6 780.2
07 03:10 24.7 83 18.79 21.6 17 19 1010.4 0 40.6 39.7 76.3 201.9 222.0 771.0
07 03:00 24.9 85 19.46 22.2 19 20 1010.5 0 42.0 40.8 79.3 209.9 231.8 805.2
07 02:50 24.9 84 19.23 22 19 20 1010.6 0 41.5 40.4 78.2 207.0 228.2 792.7
07 02:40 24.9 85 19.46 22.2 19 20 1010.6 0 42.0 40.9 79.3 209.9 231.8 805.2
07 02:30 25.1 86 19.91 22.6 20 24 1010.7 0 42.9 41.6 81.3 215.1 238.3 827.6
07 02:20 25.4 85 20.01 22.7 20 20 1010.7 0 43.1 41.7 81.4 215.5 238.9 829.8
07 02:10 25.2 83 19.32 22.1 17 17 1010.8 0 41.6 40.4 78.3 207.3 228.7 794.6
07 02:00 25 82 18.88 21.7 17 20 1011 0 40.7 39.7 76.5 202.3 222.6 773.1
07 01:50 25.1 82 18.98 21.8 15 17 1011.1 0 40.9 39.9 76.9 203.3 223.8 777.5
07 01:40 25.2 82 19.09 21.9 15 17 1011.2 0 41.1 40.0 77.3 204.5 225.2 782.4
07 01:30 25.2 82 19.09 21.9 17 20 1011.3 0 41.1 40.0 77.3 204.5 225.3 782.4
07 01:20 25.2 82 19.09 21.9 17 19 1011.4 0 41.1 40.0 77.3 204.5 225.3 782.5
07 01:10 25.3 82 19.2 22 17 19 1011.5 0 41.4 40.2 77.7 205.6 226.7 787.4
07 01:00 25.5 82 19.41 22.2 19 20 1011.6 0 41.8 40.5 78.5 207.7 229.3 796.7
07 00:50 25.4 82 19.3 22.1 17 20 1011.7 0 41.6 40.4 78.1 206.6 228.0 791.9
07 00:40 25.3 82 19.2 22 19 19 1011.8 0 41.4 40.2 77.7 205.7 226.7 787.6
07 00:30 25.3 82 19.2 22 17 19 1011.9 0 41.4 40.2 77.7 205.7 226.7 787.6
07 00:20 25.3 82 19.2 22 15 17 1011.9 0 41.4 40.2 77.7 205.7 226.7 787.6
07 00:10 25.4 82 19.3 22.1 17 19 1012 0 41.6 40.4 78.1 206.7 228.0 792.0
07 00:00 25.4 82 19.3 22.1 17 20 1011.9 0 41.6 40.4 78.1 206.7 228.0 792.0
06 23:50 25.4 82 19.3 22.1 15 17 1012.1 0 41.6 40.4 78.1 206.7 228.0 792.1
06 23:40 25.5 83 19.65 22.4 15 17 1012.1 0 42.3 41.0 79.7 210.9 233.1 809.9
06 23:30 25.4 82 19.3 22.1 17 19 1012.1 0 41.6 40.4 78.1 206.7 228.0 792.1
06 23:20 25.5 82 19.41 22.2 17 17 1012.2 0 41.8 40.5 78.6 207.8 229.4 797.0
06 23:10 25.5 82 19.41 22.2 17 19 1012.2 0 41.8 40.5 78.6 207.8 229.4 797.0
06 23:00 25.4 82 19.3 22.1 17 19 1012.1 0 41.6 40.4 78.1 206.7 228.0 792.1
06 22:50 25.6 82 19.52 22.3 19 19 1012.1 0 42.0 40.7 79.0 208.9 230.8 801.8
06 22:40 25.6 82 19.52 22.3 17 19 1012.1 0 42.0 40.7 79.0 208.9 230.8 801.8
06 22:30 25.7 83 19.87 22.6 17 20 1012 0 42.7 41.3 80.5 213.1 235.9 819.6
06 22:20 25.5 81 19.18 22 19 20 1011.9 0 41.3 40.1 77.4 204.9 225.8 784.5
06 22:10 25.6 81 19.28 22.1 19 20 1011.9 0 41.5 40.2 77.8 205.9 227.1 788.8
06 22:00 25.7 82 19.63 22.4 19 20 1011.8 0 42.2 40.8 79.4 210.0 232.2 806.5
06 21:50 25.7 81 19.39 22.2 19 20 1011.7 0 41.7 40.4 78.2 207.0 228.4 793.5
06 21:40 25.7 81 19.39 22.2 19 20 1011.6 0 41.7 40.4 78.2 206.9 228.4 793.5
06 21:30 25.7 81 19.39 22.2 17 19 1011.6 0 41.7 40.4 78.2 206.9 228.4 793.5
06 21:20 25.6 80 19.05 21.9 17 19 1011.5 0 41.0 39.8 76.7 202.9 223.5 776.3
06 21:10 25.8 81 19.5 22.3 19 19 1011.4 0 41.9 40.5 78.6 208.0 229.8 798.2
06 21:00 26 81 19.72 22.5 17 19 1011.3 0 42.4 40.8 79.4 210.2 232.5 807.9
06 20:50 25.6 80 19.05 21.9 17 17 1011.2 0 41.0 39.8 76.7 202.9 223.4 776.1
06 20:40 25.9 81 19.61 22.4 17 19 1011 0 42.2 40.7 79.0 209.1 231.1 802.9
06 20:30 25.8 81 19.5 22.3 17 19 1011 0 42.0 40.5 78.6 208.0 229.7 798.0
06 20:20 25.9 80 19.37 22.2 15 17 1010.9 0 41.7 40.2 77.9 206.0 227.4 789.9
06 20:10 25.8 81 19.5 22.3 17 17 1010.8 0 42.0 40.5 78.6 207.9 229.7 797.9
06 20:00 25.7 80 19.15 22 15 17 1010.7 0 41.2 39.9 77.0 203.8 224.6 780.2
06 19:50 25.8 80 19.26 22.1 17 17 1010.6 0 41.4 40.0 77.4 204.9 226.0 784.9
06 19:40 25.7 78 18.67 21.6 17 17 1010.5 0 40.2 39.0 74.8 197.8 217.2 754.6
06 19:30 25.8 79 19.02 21.9 15 17 1010.3 0 40.9 39.6 76.3 201.8 222.2 772.0
06 19:20 25.8 78 18.78 21.7 17 17 1010.3 0 40.4 39.1 75.2 198.9 218.6 759.3
06 19:10 25.9 78 18.88 21.8 13 15 1010.3 0 40.6 39.3 75.5 199.8 219.8 763.6
06 19:00 25.7 77 18.43 21.4 17 19 1010.2 0 39.7 38.5 73.6 194.8 213.6 741.9
06 18:50 26 77 18.75 21.7 15 17 1010.1 0 40.3 39.0 74.8 197.9 217.5 755.6
06 18:40 26.1 76 18.61 21.5 17 17 1010 0 40.0 38.7 74.1 196.0 215.1 747.3
06 18:30 26.1 75 18.36 21.3 15 17 1009.9 0 39.5 38.2 72.9 192.9 211.3 734.2
06 18:20 26.2 74 18.22 21.2 15 17 1009.8 0 39.2 37.9 72.2 190.9 209.0 725.9
06 18:10 26.4 75 18.67 21.6 15 17 1009.8 0 40.1 38.6 74.0 195.9 215.1 747.3
06 18:00 26.7 74 18.73 21.7 15 19 1009.7 0 40.2 38.6 74.0 195.8 215.1 747.5
06 17:50 26.7 74 18.73 21.7 17 17 1009.7 0 40.2 38.6 74.0 195.8 215.1 747.5
06 17:40 27 73 18.79 21.7 15 17 1009.6 0 40.3 38.6 74.0 195.8 215.2 747.6
06 17:30 27 72 18.53 21.5 15 15 1009.5 0 39.8 38.1 72.8 192.6 211.3 734.1
06 17:20 27.2 73 19 21.9 13 15 1009.5 0 40.8 38.8 74.8 197.8 217.7 756.5
06 17:10 27.7 70 18.73 21.7 13 15 1009.5 0 40.1 38.1 73.0 193.3 212.3 737.6
06 17:00 27.7 71 18.99 22 11 13 1009.4 0 40.7 38.6 74.2 196.4 216.1 750.9
06 16:50 27.4 69 18.16 21.2 11 11 1009.5 0 39.0 37.2 70.8 187.2 204.8 711.4
06 16:40 27.6 70 18.62 21.6 9 11 1009.5 0 39.9 38.0 72.6 192.2 210.9 732.9
06 16:30 27.3 74 19.36 22.3 11 13 1009.5 0 41.5 39.5 76.3 201.9 222.8 774.2
06 16:20 27.4 73 19.21 22.1 11 13 1009.5 0 41.2 39.1 75.5 199.8 220.3 765.4
06 16:10 27.8 72 19.37 22.3 11 13 1009.5 0 41.5 39.2 75.9 200.7 221.5 769.7
06 16:00 27.7 71 18.99 22 9 11 1009.5 0 40.7 38.6 74.2 196.4 216.1 751.0
06 15:50 27.2 72 18.74 21.7 9 11 1009.5 0 40.2 38.4 73.6 194.6 213.8 743.0
06 15:40 27.4 73 19.21 22.1 13 15 1009.5 0 41.2 39.1 75.5 199.8 220.3 765.4
06 15:30 27.4 73 19.21 22.1 11 13 1009.5 0 41.2 39.1 75.5 199.8 220.3 765.4
06 15:20 27.7 71 18.99 22 11 13 1009.5 0 40.7 38.6 74.2 196.4 216.1 751.0
06 15:10 27.6 70 18.62 21.6 7 9 1009.6 0 39.9 38.0 72.6 192.2 210.9 733.0
06 15:00 27.7 70 18.73 21.7 9 11 1009.7 0 40.1 38.1 73.1 193.3 212.3 737.7
06 14:50 27.8 70 18.83 21.8 7 9 1009.7 0 40.3 38.3 73.4 194.2 213.5 741.9
06 14:40 27.7 69 18.46 21.5 7 9 1009.9 0 39.6 37.7 71.8 190.1 208.4 724.0

Last Refresh: 07-Aug-2020 07:26:17

Most of the information presented on this site is sourced from the Bureau of Meteorology.  Copyright in all material sourced from the Bureau of Meteorology resides with the Commonwealth of Australia.